Lostant, Illinois
Current Conditions -  °F | °C
As of 4:15 PM on Saturday 20 Dec 2014 (Local Time) from KVYS Reporting Station
Overcast Overcast  
Wind Chill: -2°   Ceiling: 3300
Heat Index:   Visibility: 7mi
Dew Point: -2°   Wind: 6mph
Humidity: 81%   Direction: 140°SE
Pressure: 30.24"   Gusts: NA
Location:  41.14°N, 89.06°W
Report Text: KVYS 202215Z AUTO 14005KT 7SM BKN033 OVC055 01/M02 A3024 RMK AO2 T00111018
Loading
Personal Weather Stations






























Interactive Weather Map New forecast layout! Learn more

10-Day Weather Forecast

Advertisements
Track Severe Weather on mobile